Terminal Aerodrome Forecast
Issued by NWS

Home | Current Version | Previous Version | Text Only | Print | Product List | Glossary On
Versions: 1 2 3 4 5 6 7 8 9 10 11 12 13 14 15 16 17 18 19 20
000
FTUS42 KJAX 052345
TAFCRG
TAF
KCRG 052345Z 0600/0624 04012G20KT P6SM VCSH SCT025 BKN070 BKN200
     FM060200 05011KT P6SM VCSH SCT025 SCT030 OVC200
     FM061000 04008KT P6SM VCSH SCT020 BKN030 OVC200
     FM061400 03016G26KT P6SM VCSH SCT020 BKN030 BKN100
     FM062300 01013G20KT P6SM VCSH SCT015 BKN030 BKN070=

USA.gov is the U.S. government's official web portal to all federal, state and local government web resources and services.